Latest Weather Observations for Sydney Olympic Park

IDN60901

Issued at 6:51 pm EDT Wednesday 29 January 2020 (issued every 10 minutes, with the page automatically refreshed every 10 minutes)

About weather observations | Map of Sydney area stations | Latest observations for Sydney area | Other Formats
Station Details ID: 066212 Name: SYDNEY OLYMPIC PARK AWS (ARCHERY CENTRE) Lat: -33.83 Lon: 151.07 Height: 4.0 m
Data from the previous 72 hours. | See also: Recent months at Sydney Olympic Park
Date/Time
EDT
Temp
°C
App
Temp
°C
Dew
Point
°C
Rel
Hum
%
Delta-T
°C
Wind Press
QNH
hPa
Press
MSL
hPa
Rain since
9am
mm
Dir  Spd
km/h
Gust
km/h
Spd
kts
Gust
kts
29/06:30pm 25.1 25.0 18.8 68 4.0 ESE 17 24 9 13 - - 0.0
29/06:00pm 25.2 24.9 19.1 69 3.9 SE 19 28 10 15 - - 0.0
29/05:30pm 25.7 25.9 19.3 67 4.1 ESE 17 24 9 13 - - 0.0
29/05:00pm 25.7 25.9 19.3 67 4.1 E 17 28 9 15 - - 0.0
29/04:30pm 26.2 26.6 19.8 68 4.2 E 17 24 9 13 - - 0.0
29/04:00pm 26.4 26.9 20.0 68 4.2 SE 17 22 9 12 - - 0.0
29/03:30pm 26.3 26.3 19.7 67 4.3 ESE 19 28 10 15 - - 0.0
29/03:00pm 26.6 26.7 19.2 64 4.8 ESE 17 24 9 13 - - 0.0
29/02:30pm 27.1 26.9 19.4 62 5.0 ESE 19 28 10 15 - - 0.0
29/02:00pm 26.8 26.6 18.6 60 5.2 ESE 17 26 9 14 - - 0.0
29/01:30pm 26.5 26.5 18.9 63 4.9 ESE 17 24 9 13 - - 0.0
29/01:00pm 26.4 26.4 19.0 63 4.7 SE 17 26 9 14 - - 0.0
29/12:30pm 27.2 27.6 19.0 61 5.3 ESE 15 24 8 13 - - 0.0
29/12:00pm 26.2 26.3 18.3 61 5.0 ESE 15 22 8 12 - - 0.0
29/11:30am 26.8 28.1 19.4 64 4.8 SSE 11 19 6 10 - - 0.0
29/11:00am 25.7 25.5 17.6 61 5.1 SE 15 20 8 11 - - 0.0
29/10:30am 24.9 25.6 17.9 65 4.4 SE 11 17 6 9 - - 0.0
29/10:00am 25.1 26.6 18.8 68 4.0 SSE 9 17 5 9 - - 0.0
29/09:30am 24.7 25.7 18.6 69 3.9 SSE 11 17 6 9 - - 0.0
29/09:00am 24.2 25.0 18.2 69 3.8 SSE 11 17 6 9 - - 0.0
29/08:30am 23.7 24.2 18.4 72 3.3 SSE 13 19 7 10 - - 0.0
29/08:00am 23.5 24.1 18.6 74 3.1 S 13 17 7 9 - - 0.0
29/07:30am 23.3 24.3 18.6 75 3.0 S 11 17 6 9 - - 0.0
29/07:00am 23.1 24.5 18.6 76 2.8 S 9 15 5 8 - - 0.0
29/06:30am 23.0 23.9 18.5 76 2.8 S 11 15 6 8 - - 0.0
29/06:00am 23.3 24.8 19.0 77 2.7 S 9 17 5 9 - - 0.0
29/05:30am 23.4 25.2 19.5 79 2.5 S 9 17 5 9 - - 0.0
29/05:00am 23.5 24.3 19.8 80 2.4 S 15 24 8 13 - - 0.0
29/04:30am 23.6 25.4 20.3 82 2.1 S 11 22 6 12 - - 0.0
29/04:00am 23.7 25.1 20.4 82 2.1 S 13 20 7 11 - - 0.0
29/03:30am 23.8 25.8 20.7 83 2.0 S 11 20 6 11 - - 0.0
29/03:00am 23.9 26.3 20.8 83 2.0 S 9 15 5 8 - - 0.0
29/02:30am 24.0 25.3 20.9 83 2.0 SSW 15 24 8 13 - - 0.0
29/02:00am 24.1 26.3 21.2 84 1.9 SSW 11 17 6 9 - - 0.0
29/01:30am 24.3 26.4 21.0 82 2.2 SSW 11 19 6 10 - - 0.0
29/01:00am 24.4 26.7 21.3 83 2.0 SSW 11 20 6 11 - - 0.0
29/12:30am 24.5 26.4 21.4 83 2.0 S 13 22 7 12 - - 0.0
29/12:00am 24.6 25.9 21.7 84 1.9 SSE 17 24 9 13 - - 0.0
 
Date/Time
EDT
Temp
°C
App
Temp
°C
Dew
Point
°C
Rel
Hum
%
Delta-T
°C
Wind Press
QNH
hPa
Press
MSL
hPa
Rain since
9am
mm
Dir  Spd
km/h
Gust
km/h
Spd
kts
Gust
kts
28/11:30pm 24.8 27.0 21.9 84 1.9 SSE 13 24 7 13 - - 0.0
28/11:00pm 24.9 26.8 22.0 84 1.9 SSE 15 24 8 13 - - 0.0
28/10:30pm 25.1 27.0 22.0 83 2.1 SSE 15 28 8 15 - - 0.0
28/10:00pm 25.0 27.6 21.9 83 2.1 SSE 11 19 6 10 - - 0.0
28/09:30pm 25.1 27.5 21.6 81 2.3 S 11 24 6 13 - - 0.0
28/09:00pm 25.3 27.0 21.6 80 2.5 S 15 28 8 15 - - 0.0
28/08:30pm 25.5 27.9 22.2 82 2.2 SSE 13 30 7 16 - - 0.0
28/08:00pm 25.7 26.4 22.2 81 2.3 SSE 22 35 12 19 - - 0.0
28/07:30pm 25.9 26.1 22.0 79 2.6 SSE 24 35 13 19 - - 0.0
28/07:00pm 26.4 27.4 21.8 76 3.1 SSE 19 32 10 17 - - 0.0
28/06:30pm 27.1 28.1 21.8 73 3.5 SSE 19 28 10 15 - - 0.0
28/06:00pm 27.4 28.6 21.4 70 4.0 SE 17 28 9 15 - - 0.0
28/05:30pm 27.4 27.8 21.0 68 4.2 SE 20 26 11 14 - - 0.0
28/05:00pm 28.1 28.9 21.4 67 4.5 ESE 19 26 10 14 - - 0.0
28/04:30pm 29.3 30.2 22.0 64 4.9 ESE 20 26 11 14 - - 0.0
28/04:00pm 29.4 31.8 22.9 68 4.4 SE 15 20 8 11 - - 0.0
28/03:30pm 29.9 32.8 23.1 67 4.7 E 13 19 7 10 - - 0.0
28/03:00pm 29.9 32.5 23.3 67 4.5 ESE 15 20 8 11 - - 0.0
28/02:30pm 30.2 32.2 22.9 65 5.0 E 17 24 9 13 - - 0.0
28/02:00pm 30.2 32.4 22.6 63 5.2 E 15 22 8 12 - - 0.0
28/01:30pm 31.2 33.5 22.8 61 5.8 E 15 20 8 11 - - 0.0
28/01:00pm 31.1 33.1 23.0 62 5.6 ESE 17 26 9 14 - - 0.0
28/12:30pm 31.3 35.4 22.9 61 5.8 ESE 6 9 3 5 - - 0.0
28/12:00pm 30.4 34.2 22.8 64 5.2 ESE 7 15 4 8 - - 0.0
28/11:30am 29.0 32.1 21.5 64 5.0 ESE 7 11 4 6 - - 0.0
28/11:00am 28.8 32.1 21.8 66 4.7 E 7 11 4 6 - - 0.0
28/10:30am 27.8 30.8 21.3 67 4.3 ENE 7 11 4 6 - - 0.0
28/10:00am 27.3 30.0 21.3 69 4.0 ESE 9 13 5 7 - - 0.0
28/09:30am 26.5 29.4 21.0 72 3.6 S 7 13 4 7 - - 0.0
28/09:00am 26.2 29.5 21.4 75 3.2 SSE 6 9 3 5 - - 0.0
28/08:30am 25.8 30.1 21.9 79 2.6 SSW 2 9 1 5 - - 0.0
28/08:00am 25.1 29.0 22.6 86 1.7 SE 6 9 3 5 - - 0.0
28/07:30am 24.2 27.9 22.3 89 1.3 SSE 6 11 3 6 - - 0.0
28/07:00am 23.7 28.8 23.4 98 0.2 S 2 7 1 4 - - 0.0
28/06:30am 22.9 28.0 22.7 99 0.1 CALM 0 0 0 0 - - 0.0
28/06:00am 23.0 27.4 22.8 99 0.1 WSW 4 9 2 5 - - 0.0
28/05:30am 22.8 27.9 22.6 99 0.1 CALM 0 7 0 4 - - 0.0
28/05:00am 22.5 27.3 22.2 98 0.2 CALM 0 0 0 0 - - 0.0
28/04:30am 22.5 27.2 22.0 97 0.3 CALM 0 0 0 0 - - 0.0
28/04:00am 22.8 27.7 22.3 97 0.3 CALM 0 0 0 0 - - 0.0
28/03:30am 23.1 28.0 22.3 95 0.5 CALM 0 0 0 0 - - 0.0
28/03:00am 23.3 28.0 21.9 92 0.9 CALM 0 0 0 0 - - 0.0
28/02:30am 23.9 28.8 22.3 91 1.1 CALM 0 0 0 0 - - 0.0
28/02:00am 24.0 28.8 22.1 89 1.3 CALM 0 0 0 0 - - 0.0
28/01:30am 24.3 28.0 22.2 88 1.4 E 6 9 3 5 - - 0.0
28/01:00am 24.5 27.7 22.4 88 1.4 E 9 15 5 8 - - 0.0
28/12:30am 24.2 27.8 22.3 89 1.3 SE 7 9 4 5 - - 0.0
28/12:00am 24.3 27.9 22.0 87 1.5 SE 6 9 3 5 - - 0.0
 
Date/Time
EDT
Temp
°C
App
Temp
°C
Dew
Point
°C
Rel
Hum
%
Delta-T
°C
Wind Press
QNH
hPa
Press
MSL
hPa
Rain since
9am
mm
Dir  Spd
km/h
Gust
km/h
Spd
kts
Gust
kts
27/11:30pm 24.3 27.8 21.8 86 1.7 ESE 6 11 3 6 - - 0.0
27/11:00pm 24.3 28.9 21.8 86 1.7 CALM 0 0 0 0 - - 0.0
27/10:30pm 24.5 28.8 21.2 82 2.2 CALM 0 0 0 0 - - 0.0
27/10:00pm 25.1 28.4 21.4 80 2.4 ESE 6 9 3 5 - - 0.0
27/09:30pm 25.5 28.4 21.0 76 3.0 E 7 15 4 8 - - 0.0
27/09:00pm 25.8 28.3 21.0 75 3.2 ENE 9 17 5 9 - - 0.0
27/08:30pm 26.0 28.5 21.7 77 2.9 ENE 11 19 6 10 - - 0.0
27/08:00pm 26.2 29.3 21.4 75 3.2 NNE 7 22 4 12 - - 0.0
27/07:30pm 26.8 29.4 22.0 75 3.2 ENE 11 20 6 11 - - 0.0
27/07:00pm 27.2 29.9 22.2 74 3.4 ENE 11 17 6 9 - - 0.0
27/06:30pm 27.2 29.0 21.9 73 3.6 E 15 20 8 11 - - 0.0
27/06:00pm 27.6 29.3 22.3 73 3.6 ESE 17 26 9 14 - - 0.0
27/05:30pm 27.6 29.0 21.9 71 3.8 ESE 17 24 9 13 - - 0.0
27/05:00pm 28.3 30.1 22.5 71 3.9 ESE 17 22 9 12 - - 0.0
27/04:30pm 28.6 30.2 22.1 68 4.4 E 17 28 9 15 - - 0.0
27/04:00pm 28.6 30.2 22.1 68 4.4 E 17 24 9 13 - - 0.0
27/03:30pm 28.8 29.9 21.3 64 5.0 E 17 24 9 13 - - 0.0
27/03:00pm 28.9 30.7 21.9 66 4.7 E 15 22 8 12 - - 0.0
27/02:30pm 29.1 31.4 22.1 66 4.7 ESE 13 20 7 11 - - 0.0
27/02:00pm 28.3 30.0 21.6 67 4.5 ESE 15 20 8 11 - - 0.0
27/01:30pm 28.0 29.1 21.3 67 4.5 SE 17 24 9 13 - - 0.0
27/01:00pm 28.2 29.8 21.5 67 4.5 ESE 15 22 8 12 - - 0.0
27/12:30pm 28.0 29.8 21.8 69 4.2 E 15 24 8 13 - - 0.0
27/12:00pm 27.5 29.3 21.1 68 4.2 ESE 13 20 7 11 - - 0.0
27/11:30am 26.9 29.1 21.2 71 3.8 E 11 17 6 9 - - 0.0
27/11:00am 26.8 28.5 20.9 70 3.9 E 13 17 7 9 - - 0.0
27/10:30am 26.7 29.2 21.0 71 3.8 ESE 9 15 5 8 - - 0.0
27/10:00am 26.2 28.6 20.8 72 3.6 ESE 9 15 5 8 - - 0.0
27/09:30am 25.5 28.0 21.0 76 3.0 ESE 9 13 5 7 - - 0.0
27/09:00am 25.2 27.7 21.1 78 2.7 SSE 9 13 5 7 - - 9.4
27/08:30am 24.7 28.0 20.8 79 2.6 S 4 9 2 5 - - 9.4
27/08:00am 24.1 26.3 20.4 80 2.4 S 9 19 5 10 - - 9.4
27/07:30am 23.9 25.8 20.6 82 2.2 S 11 15 6 8 - - 9.4
27/07:00am 23.8 26.0 20.5 82 2.1 S 9 15 5 8 - - 9.4
27/06:30am 23.7 26.0 20.6 83 2.0 SSW 9 15 5 8 - - 9.4
27/06:00am 23.6 26.3 20.7 84 1.9 S 7 11 4 6 - - 9.4
27/05:30am 23.7 25.6 20.6 83 2.0 S 11 17 6 9 - - 9.4
27/05:00am 23.8 26.5 20.7 83 2.0 SSW 7 13 4 7 - - 9.4
27/04:31am 23.9 26.3 20.8 83 2.0 S 9 15 5 8 - - 9.4
27/04:30am 23.9 26.3 20.8 83 2.0 S 9 15 5 8 - - 9.4
27/04:07am 23.9 26.3 20.8 83 2.0 SSW 9 13 5 7 - - 9.4
27/04:00am 23.9 25.4 20.6 82 2.2 S 13 19 7 10 - - 9.4
27/03:48am 24.0 26.3 20.7 82 2.2 SSW 9 17 5 9 - - 9.4
27/03:30am 24.0 26.7 20.7 82 2.2 SSW 7 15 4 8 - - 9.4
27/03:00am 24.1 26.4 20.6 81 2.3 S 9 17 5 9 - - 9.4
27/02:57am 24.1 26.4 20.6 81 2.3 S 9 17 5 9 - - 9.4
27/02:30am 24.1 25.7 20.8 82 2.2 S 13 26 7 14 - - 9.4
27/02:00am 24.2 24.6 20.7 81 2.3 SSE 19 33 10 18 - - 9.4
27/01:30am 24.5 25.1 21.0 81 2.3 SSE 19 33 10 18 - - 9.4
27/01:00am 24.8 25.4 21.1 80 2.4 SSE 19 30 10 16 - - 9.4
27/12:44am 25.2 25.8 21.1 78 2.7 SSE 19 30 10 16 - - 9.4
27/12:30am 25.8 26.7 21.5 77 2.9 SSE 19 26 10 14 - - 9.4
27/12:00am 27.9 29.0 21.2 67 4.5 SSE 17 24 9 13 - - 9.4
 
Date/Time
EDT
Temp
°C
App
Temp
°C
Dew
Point
°C
Rel
Hum
%
Delta-T
°C
Wind Press
QNH
hPa
Press
MSL
hPa
Rain since
9am
mm
Dir  Spd
km/h
Gust
km/h
Spd
kts
Gust
kts
26/11:30pm 26.3 31.0 21.9 77 2.9 CALM 0 6 0 3 - - 9.4
26/11:00pm 26.6 31.1 21.6 74 3.3 CALM 0 0 0 0 - - 9.4
26/10:30pm 26.7 30.5 21.7 74 3.3 NW 4 7 2 4 - - 9.4
26/10:00pm 27.8 32.3 21.6 69 4.1 CALM 0 6 0 3 - - 9.4
26/09:30pm 28.5 32.5 22.0 68 4.4 N 4 7 2 4 - - 9.4
26/09:00pm 27.8 31.9 21.6 69 4.1 WNW 2 6 1 3 - - 9.4
26/08:30pm 28.6 32.5 21.1 64 5.0 NNW 2 9 1 5 - - 9.4
26/08:00pm 28.9 32.5 20.6 61 5.5 NNE 2 9 1 5 - - 9.4
26/07:30pm 29.9 31.4 20.5 57 6.2 N 13 26 7 14 - - 9.4
26/07:00pm 30.3 31.7 21.1 58 6.1 NNE 15 30 8 16 - - 9.4

Latest Capital City Observations: Canberra | Sydney | Melbourne | Brisbane | Adelaide | Perth | Hobart | Darwin

Other formats

Comma delimited format used in spreadsheet applications
http://www.bom.gov.au/fwo/IDN60901/IDN60901.95765.axf

JavaScript Object Notation format (JSON) in row-major order
http://www.bom.gov.au/fwo/IDN60901/IDN60901.95765.json

Data quality

Most of these data are generated automatically and are frequently updated. Quality checks on data are not normally performed. It is possible for incorrect values to appear. Refer to information at About Latest Weather Observations and please check the disclaimer before using these data.